Johnstone, United Kingdom
Current Conditions -  °F | °C
As of 10:50 PM on Friday 28 Nov 2014 (Local Time) from EGPF Reporting Station
Overcast Overcast  
Wind Chill: 50°   Ceiling: 2800
Heat Index: 50°   Visibility: 6mi
Dew Point: 48°   Wind: 8mph
Humidity: 94%   Direction: 70°ENE
Pressure: 29.85"   Gusts: NA
Location:  55.83°N, 4.52°W
Report Text: EGPF 282250Z AUTO 07007KT 9999 SCT008 OVC028 10/09 Q1011
Loading
Personal Weather Stations






























Interactive Weather Map New forecast layout! Learn more

10-Day Weather Forecast

Advertisements
Track Severe Weather on mobile